sensor_id;sensor_type;location;lat;lon;timestamp;P1;durP1;ratioP1;P2;durP2;ratioP2
8861;SDS011;4799;50.996;4.754;2022-10-22T00:01:15;8.27;;;4.53;;
8861;SDS011;4799;50.996;4.754;2022-10-22T00:03:41;9.83;;;4.80;;
8861;SDS011;4799;50.996;4.754;2022-10-22T00:06:06;7.57;;;4.73;;
8861;SDS011;4799;50.996;4.754;2022-10-22T00:08:32;8.70;;;5.10;;
8861;SDS011;4799;50.996;4.754;2022-10-22T00:10:58;8.27;;;4.10;;
8861;SDS011;4799;50.996;4.754;2022-10-22T00:13:24;7.60;;;4.17;;
8861;SDS011;4799;50.996;4.754;2022-10-22T00:15:49;5.77;;;4.00;;
8861;SDS011;4799;50.996;4.754;2022-10-22T00:18:15;8.87;;;4.80;;
8861;SDS011;4799;50.996;4.754;2022-10-22T00:20:41;8.50;;;4.67;;
8861;SDS011;4799;50.996;4.754;2022-10-22T00:23:07;9.27;;;4.27;;
8861;SDS011;4799;50.996;4.754;2022-10-22T00:25:33;7.97;;;4.47;;
8861;SDS011;4799;50.996;4.754;2022-10-22T00:28:00;7.27;;;4.63;;
8861;SDS011;4799;50.996;4.754;2022-10-22T00:30:26;6.60;;;3.90;;
8861;SDS011;4799;50.996;4.754;2022-10-22T00:32:52;11.60;;;4.93;;
8861;SDS011;4799;50.996;4.754;2022-10-22T00:35:18;10.23;;;4.83;;
8861;SDS011;4799;50.996;4.754;2022-10-22T00:37:43;8.97;;;4.77;;
8861;SDS011;4799;50.996;4.754;2022-10-22T00:40:09;9.77;;;5.57;;
8861;SDS011;4799;50.996;4.754;2022-10-22T00:42:36;11.70;;;5.23;;
8861;SDS011;4799;50.996;4.754;2022-10-22T00:47:52;11.00;;;5.17;;
8861;SDS011;4799;50.996;4.754;2022-10-22T00:53:03;11.33;;;5.43;;
8861;SDS011;4799;50.996;4.754;2022-10-22T00:55:37;8.90;;;5.30;;
8861;SDS011;4799;50.996;4.754;2022-10-22T00:58:03;11.83;;;5.13;;
8861;SDS011;4799;50.996;4.754;2022-10-22T01:00:29;9.87;;;4.83;;
8861;SDS011;4799;50.996;4.754;2022-10-22T01:02:55;10.20;;;4.30;;
8861;SDS011;4799;50.996;4.754;2022-10-22T01:05:22;8.83;;;4.63;;
8861;SDS011;4799;50.996;4.754;2022-10-22T01:07:52;8.70;;;4.77;;
8861;SDS011;4799;50.996;4.754;2022-10-22T01:13:30;6.10;;;4.40;;
8861;SDS011;4799;50.996;4.754;2022-10-22T01:18:35;7.67;;;3.90;;
8861;SDS011;4799;50.996;4.754;2022-10-22T01:29:46;6.97;;;4.23;;
8861;SDS011;4799;50.996;4.754;2022-10-22T01:32:20;11.33;;;4.73;;
8861;SDS011;4799;50.996;4.754;2022-10-22T01:34:48;8.33;;;4.27;;
8861;SDS011;4799;50.996;4.754;2022-10-22T01:37:18;8.60;;;4.37;;
8861;SDS011;4799;50.996;4.754;2022-10-22T01:39:48;10.83;;;4.60;;
8861;SDS011;4799;50.996;4.754;2022-10-22T01:42:14;7.63;;;4.43;;
8861;SDS011;4799;50.996;4.754;2022-10-22T01:44:40;8.57;;;4.03;;
8861;SDS011;4799;50.996;4.754;2022-10-22T01:47:21;6.40;;;4.10;;
8861;SDS011;4799;50.996;4.754;2022-10-22T01:50:18;9.10;;;4.27;;
8861;SDS011;4799;50.996;4.754;2022-10-22T01:53:06;7.33;;;3.93;;
8861;SDS011;4799;50.996;4.754;2022-10-22T02:03:50;7.47;;;3.97;;
8861;SDS011;4799;50.996;4.754;2022-10-22T02:06:25;7.90;;;3.90;;
8861;SDS011;4799;50.996;4.754;2022-10-22T02:08:53;11.63;;;4.40;;
8861;SDS011;4799;50.996;4.754;2022-10-22T02:11:22;8.53;;;4.00;;
8861;SDS011;4799;50.996;4.754;2022-10-22T02:13:49;8.97;;;4.00;;
8861;SDS011;4799;50.996;4.754;2022-10-22T02:16:20;6.90;;;3.87;;
8861;SDS011;4799;50.996;4.754;2022-10-22T02:19:10;8.57;;;4.20;;
8861;SDS011;4799;50.996;4.754;2022-10-22T02:21:49;9.10;;;4.00;;
8861;SDS011;4799;50.996;4.754;2022-10-22T02:24:16;9.37;;;4.33;;
8861;SDS011;4799;50.996;4.754;2022-10-22T02:29:29;10.23;;;4.30;;
8861;SDS011;4799;50.996;4.754;2022-10-22T02:32:02;9.07;;;4.30;;
8861;SDS011;4799;50.996;4.754;2022-10-22T02:34:30;11.60;;;4.20;;
8861;SDS011;4799;50.996;4.754;2022-10-22T02:36:57;8.73;;;4.10;;
8861;SDS011;4799;50.996;4.754;2022-10-22T02:39:26;8.17;;;4.50;;
8861;SDS011;4799;50.996;4.754;2022-10-22T02:41:54;9.27;;;4.30;;
8861;SDS011;4799;50.996;4.754;2022-10-22T02:44:22;8.77;;;4.40;;
8861;SDS011;4799;50.996;4.754;2022-10-22T02:46:48;10.03;;;4.07;;
8861;SDS011;4799;50.996;4.754;2022-10-22T02:49:14;9.03;;;4.37;;
8861;SDS011;4799;50.996;4.754;2022-10-22T02:51:40;8.90;;;4.13;;
8861;SDS011;4799;50.996;4.754;2022-10-22T02:54:06;8.73;;;4.33;;
8861;SDS011;4799;50.996;4.754;2022-10-22T02:56:31;11.57;;;5.00;;
8861;SDS011;4799;50.996;4.754;2022-10-22T02:58:57;8.43;;;4.33;;
8861;SDS011;4799;50.996;4.754;2022-10-22T03:01:23;8.03;;;4.20;;
8861;SDS011;4799;50.996;4.754;2022-10-22T03:03:48;7.90;;;4.60;;
8861;SDS011;4799;50.996;4.754;2022-10-22T03:06:14;10.83;;;4.27;;
8861;SDS011;4799;50.996;4.754;2022-10-22T03:08:40;10.57;;;4.40;;
8861;SDS011;4799;50.996;4.754;2022-10-22T03:11:07;8.53;;;4.07;;
8861;SDS011;4799;50.996;4.754;2022-10-22T03:13:33;7.83;;;3.80;;
8861;SDS011;4799;50.996;4.754;2022-10-22T03:15:58;7.67;;;3.80;;
8861;SDS011;4799;50.996;4.754;2022-10-22T03:18:24;7.87;;;4.13;;
8861;SDS011;4799;50.996;4.754;2022-10-22T03:20:52;12.23;;;4.50;;
8861;SDS011;4799;50.996;4.754;2022-10-22T03:23:50;6.70;;;3.90;;
8861;SDS011;4799;50.996;4.754;2022-10-22T03:26:16;11.20;;;3.80;;
8861;SDS011;4799;50.996;4.754;2022-10-22T03:28:42;10.43;;;4.17;;
8861;SDS011;4799;50.996;4.754;2022-10-22T03:31:10;9.10;;;3.93;;
8861;SDS011;4799;50.996;4.754;2022-10-22T03:33:36;9.00;;;4.10;;
8861;SDS011;4799;50.996;4.754;2022-10-22T03:36:01;11.03;;;4.30;;
8861;SDS011;4799;50.996;4.754;2022-10-22T03:38:27;8.80;;;4.13;;
8861;SDS011;4799;50.996;4.754;2022-10-22T03:40:54;9.20;;;4.00;;
8861;SDS011;4799;50.996;4.754;2022-10-22T03:43:19;11.70;;;4.20;;
8861;SDS011;4799;50.996;4.754;2022-10-22T03:45:45;10.03;;;4.00;;
8861;SDS011;4799;50.996;4.754;2022-10-22T03:48:11;7.73;;;4.10;;
8861;SDS011;4799;50.996;4.754;2022-10-22T03:50:37;8.57;;;3.90;;
8861;SDS011;4799;50.996;4.754;2022-10-22T03:53:02;6.80;;;3.87;;
8861;SDS011;4799;50.996;4.754;2022-10-22T03:55:28;12.00;;;4.37;;
8861;SDS011;4799;50.996;4.754;2022-10-22T03:57:54;9.40;;;3.57;;
8861;SDS011;4799;50.996;4.754;2022-10-22T04:00:20;11.43;;;4.00;;
8861;SDS011;4799;50.996;4.754;2022-10-22T04:02:45;10.13;;;3.80;;
8861;SDS011;4799;50.996;4.754;2022-10-22T04:05:11;8.90;;;3.67;;
8861;SDS011;4799;50.996;4.754;2022-10-22T04:07:37;8.53;;;3.40;;
8861;SDS011;4799;50.996;4.754;2022-10-22T04:10:02;6.80;;;3.60;;
8861;SDS011;4799;50.996;4.754;2022-10-22T04:12:28;7.97;;;3.13;;
8861;SDS011;4799;50.996;4.754;2022-10-22T04:14:54;10.90;;;3.47;;
8861;SDS011;4799;50.996;4.754;2022-10-22T04:17:19;8.63;;;3.20;;
8861;SDS011;4799;50.996;4.754;2022-10-22T04:19:45;10.33;;;3.60;;
8861;SDS011;4799;50.996;4.754;2022-10-22T04:22:11;8.30;;;3.43;;
8861;SDS011;4799;50.996;4.754;2022-10-22T04:24:36;8.60;;;3.27;;
8861;SDS011;4799;50.996;4.754;2022-10-22T04:27:02;9.00;;;3.33;;
8861;SDS011;4799;50.996;4.754;2022-10-22T04:29:28;7.47;;;3.43;;
8861;SDS011;4799;50.996;4.754;2022-10-22T04:31:54;7.00;;;3.40;;
8861;SDS011;4799;50.996;4.754;2022-10-22T04:34:19;9.47;;;3.30;;
8861;SDS011;4799;50.996;4.754;2022-10-22T04:36:45;7.17;;;3.27;;
8861;SDS011;4799;50.996;4.754;2022-10-22T04:39:11;6.23;;;2.57;;
8861;SDS011;4799;50.996;4.754;2022-10-22T04:41:37;9.67;;;3.20;;
8861;SDS011;4799;50.996;4.754;2022-10-22T04:44:03;11.27;;;3.40;;
8861;SDS011;4799;50.996;4.754;2022-10-22T04:46:31;8.80;;;3.27;;
8861;SDS011;4799;50.996;4.754;2022-10-22T04:48:58;8.77;;;3.10;;
8861;SDS011;4799;50.996;4.754;2022-10-22T04:51:25;8.73;;;2.90;;
8861;SDS011;4799;50.996;4.754;2022-10-22T04:53:51;9.77;;;3.90;;
8861;SDS011;4799;50.996;4.754;2022-10-22T04:56:22;8.23;;;3.17;;
8861;SDS011;4799;50.996;4.754;2022-10-22T04:58:50;6.70;;;2.90;;
8861;SDS011;4799;50.996;4.754;2022-10-22T05:01:19;8.00;;;3.10;;
8861;SDS011;4799;50.996;4.754;2022-10-22T05:03:47;5.63;;;3.47;;
8861;SDS011;4799;50.996;4.754;2022-10-22T05:06:14;7.83;;;2.83;;
8861;SDS011;4799;50.996;4.754;2022-10-22T05:08:40;7.30;;;3.00;;
8861;SDS011;4799;50.996;4.754;2022-10-22T05:11:15;10.13;;;3.37;;
8861;SDS011;4799;50.996;4.754;2022-10-22T05:13:42;7.10;;;2.80;;
8861;SDS011;4799;50.996;4.754;2022-10-22T05:16:08;8.83;;;3.20;;
8861;SDS011;4799;50.996;4.754;2022-10-22T05:18:37;6.30;;;2.93;;
8861;SDS011;4799;50.996;4.754;2022-10-22T05:21:09;7.70;;;2.83;;
8861;SDS011;4799;50.996;4.754;2022-10-22T05:23:36;11.37;;;3.37;;
8861;SDS011;4799;50.996;4.754;2022-10-22T05:26:03;6.10;;;2.57;;
8861;SDS011;4799;50.996;4.754;2022-10-22T05:28:30;7.37;;;2.73;;
8861;SDS011;4799;50.996;4.754;2022-10-22T05:30:58;7.50;;;2.80;;
8861;SDS011;4799;50.996;4.754;2022-10-22T05:33:25;7.93;;;2.80;;
8861;SDS011;4799;50.996;4.754;2022-10-22T05:35:52;7.50;;;3.10;;
8861;SDS011;4799;50.996;4.754;2022-10-22T05:38:18;10.57;;;3.30;;
8861;SDS011;4799;50.996;4.754;2022-10-22T05:40:44;5.97;;;2.70;;
8861;SDS011;4799;50.996;4.754;2022-10-22T05:43:10;8.03;;;2.87;;
8861;SDS011;4799;50.996;4.754;2022-10-22T05:45:37;10.20;;;3.37;;
8861;SDS011;4799;50.996;4.754;2022-10-22T05:48:04;5.97;;;2.60;;
8861;SDS011;4799;50.996;4.754;2022-10-22T05:50:31;7.83;;;2.90;;
8861;SDS011;4799;50.996;4.754;2022-10-22T05:53:00;8.40;;;3.07;;
8861;SDS011;4799;50.996;4.754;2022-10-22T05:55:25;11.33;;;2.77;;
8861;SDS011;4799;50.996;4.754;2022-10-22T05:57:51;5.93;;;2.90;;
8861;SDS011;4799;50.996;4.754;2022-10-22T06:00:17;5.97;;;2.23;;
8861;SDS011;4799;50.996;4.754;2022-10-22T06:02:42;7.40;;;2.77;;
8861;SDS011;4799;50.996;4.754;2022-10-22T06:05:08;8.60;;;2.60;;
8861;SDS011;4799;50.996;4.754;2022-10-22T06:07:34;6.00;;;2.37;;
8861;SDS011;4799;50.996;4.754;2022-10-22T06:10:00;7.87;;;2.87;;
8861;SDS011;4799;50.996;4.754;2022-10-22T06:12:26;7.67;;;2.23;;
8861;SDS011;4799;50.996;4.754;2022-10-22T06:14:52;8.67;;;2.47;;
8861;SDS011;4799;50.996;4.754;2022-10-22T06:17:17;7.70;;;2.63;;
8861;SDS011;4799;50.996;4.754;2022-10-22T06:19:44;8.00;;;2.50;;
8861;SDS011;4799;50.996;4.754;2022-10-22T06:22:09;5.40;;;2.40;;
8861;SDS011;4799;50.996;4.754;2022-10-22T06:24:35;7.73;;;2.27;;
8861;SDS011;4799;50.996;4.754;2022-10-22T06:27:01;7.37;;;3.10;;
8861;SDS011;4799;50.996;4.754;2022-10-22T06:29:27;6.73;;;2.67;;
8861;SDS011;4799;50.996;4.754;2022-10-22T06:31:52;9.03;;;3.10;;
8861;SDS011;4799;50.996;4.754;2022-10-22T06:34:18;5.83;;;2.50;;
8861;SDS011;4799;50.996;4.754;2022-10-22T06:36:44;5.17;;;2.40;;
8861;SDS011;4799;50.996;4.754;2022-10-22T06:39:15;8.20;;;2.50;;
8861;SDS011;4799;50.996;4.754;2022-10-22T06:41:41;7.33;;;2.83;;
8861;SDS011;4799;50.996;4.754;2022-10-22T06:44:09;8.60;;;2.40;;
8861;SDS011;4799;50.996;4.754;2022-10-22T06:46:40;7.40;;;2.33;;
8861;SDS011;4799;50.996;4.754;2022-10-22T06:49:06;9.37;;;2.47;;
8861;SDS011;4799;50.996;4.754;2022-10-22T06:51:37;5.90;;;2.40;;
8861;SDS011;4799;50.996;4.754;2022-10-22T06:54:03;9.20;;;2.57;;
8861;SDS011;4799;50.996;4.754;2022-10-22T06:56:29;6.40;;;2.13;;
8861;SDS011;4799;50.996;4.754;2022-10-22T06:58:56;7.43;;;2.53;;
8861;SDS011;4799;50.996;4.754;2022-10-22T07:01:23;6.67;;;2.70;;
8861;SDS011;4799;50.996;4.754;2022-10-22T07:03:54;8.63;;;2.37;;
8861;SDS011;4799;50.996;4.754;2022-10-22T07:06:22;6.80;;;2.40;;
8861;SDS011;4799;50.996;4.754;2022-10-22T07:08:49;5.53;;;2.23;;
8861;SDS011;4799;50.996;4.754;2022-10-22T07:11:17;5.07;;;2.20;;
8861;SDS011;4799;50.996;4.754;2022-10-22T07:13:45;8.87;;;2.67;;
8861;SDS011;4799;50.996;4.754;2022-10-22T07:16:11;7.77;;;2.70;;
8861;SDS011;4799;50.996;4.754;2022-10-22T07:18:37;6.60;;;2.47;;
8861;SDS011;4799;50.996;4.754;2022-10-22T07:21:04;6.00;;;1.87;;
8861;SDS011;4799;50.996;4.754;2022-10-22T07:23:31;3.93;;;1.80;;
8861;SDS011;4799;50.996;4.754;2022-10-22T07:25:56;7.43;;;2.17;;
8861;SDS011;4799;50.996;4.754;2022-10-22T07:28:23;7.80;;;2.40;;
8861;SDS011;4799;50.996;4.754;2022-10-22T07:30:49;6.37;;;2.23;;
8861;SDS011;4799;50.996;4.754;2022-10-22T07:33:14;5.63;;;2.20;;
8861;SDS011;4799;50.996;4.754;2022-10-22T07:35:40;7.10;;;3.23;;
8861;SDS011;4799;50.996;4.754;2022-10-22T07:38:07;9.07;;;2.83;;
8861;SDS011;4799;50.996;4.754;2022-10-22T07:40:33;5.87;;;2.63;;
8861;SDS011;4799;50.996;4.754;2022-10-22T07:43:00;8.67;;;2.90;;
8861;SDS011;4799;50.996;4.754;2022-10-22T07:45:26;7.27;;;2.40;;
8861;SDS011;4799;50.996;4.754;2022-10-22T07:47:52;6.03;;;2.07;;
8861;SDS011;4799;50.996;4.754;2022-10-22T07:50:17;5.17;;;2.20;;
8861;SDS011;4799;50.996;4.754;2022-10-22T07:52:43;6.20;;;2.30;;
8861;SDS011;4799;50.996;4.754;2022-10-22T07:55:09;5.73;;;1.93;;
8861;SDS011;4799;50.996;4.754;2022-10-22T07:57:35;13.87;;;2.77;;
8861;SDS011;4799;50.996;4.754;2022-10-22T08:00:02;7.00;;;2.20;;
8861;SDS011;4799;50.996;4.754;2022-10-22T08:02:29;6.20;;;2.10;;
8861;SDS011;4799;50.996;4.754;2022-10-22T08:04:55;7.03;;;2.03;;
8861;SDS011;4799;50.996;4.754;2022-10-22T08:07:21;5.67;;;1.93;;
8861;SDS011;4799;50.996;4.754;2022-10-22T08:09:47;9.03;;;2.00;;
8861;SDS011;4799;50.996;4.754;2022-10-22T08:12:13;7.10;;;2.10;;
8861;SDS011;4799;50.996;4.754;2022-10-22T08:14:39;5.30;;;2.27;;
8861;SDS011;4799;50.996;4.754;2022-10-22T08:17:04;5.53;;;2.40;;
8861;SDS011;4799;50.996;4.754;2022-10-22T08:19:30;5.53;;;2.10;;
8861;SDS011;4799;50.996;4.754;2022-10-22T08:21:57;5.77;;;2.03;;
8861;SDS011;4799;50.996;4.754;2022-10-22T08:24:23;5.50;;;2.17;;
8861;SDS011;4799;50.996;4.754;2022-10-22T08:26:51;6.67;;;2.10;;
8861;SDS011;4799;50.996;4.754;2022-10-22T08:29:18;6.90;;;1.93;;
8861;SDS011;4799;50.996;4.754;2022-10-22T08:31:47;6.27;;;2.00;;
8861;SDS011;4799;50.996;4.754;2022-10-22T08:34:13;6.13;;;1.90;;
8861;SDS011;4799;50.996;4.754;2022-10-22T08:36:38;5.47;;;2.00;;
8861;SDS011;4799;50.996;4.754;2022-10-22T08:39:04;5.67;;;1.87;;
8861;SDS011;4799;50.996;4.754;2022-10-22T08:41:30;5.77;;;1.80;;
8861;SDS011;4799;50.996;4.754;2022-10-22T08:50:26;5.57;;;1.80;;
8861;SDS011;4799;50.996;4.754;2022-10-22T08:53:04;4.67;;;1.93;;
8861;SDS011;4799;50.996;4.754;2022-10-22T08:55:36;7.87;;;2.10;;
8861;SDS011;4799;50.996;4.754;2022-10-22T08:58:46;4.47;;;1.67;;
8861;SDS011;4799;50.996;4.754;2022-10-22T09:00:57;5.17;;;1.60;;
8861;SDS011;4799;50.996;4.754;2022-10-22T09:03:45;5.10;;;1.93;;
8861;SDS011;4799;50.996;4.754;2022-10-22T09:06:25;4.03;;;2.10;;
8861;SDS011;4799;50.996;4.754;2022-10-22T09:08:53;7.30;;;1.97;;
8861;SDS011;4799;50.996;4.754;2022-10-22T09:13:56;6.50;;;2.20;;
8861;SDS011;4799;50.996;4.754;2022-10-22T09:16:35;4.53;;;1.70;;
8861;SDS011;4799;50.996;4.754;2022-10-22T09:24:33;7.97;;;2.23;;
8861;SDS011;4799;50.996;4.754;2022-10-22T09:27:10;7.17;;;2.33;;
8861;SDS011;4799;50.996;4.754;2022-10-22T09:29:38;7.07;;;2.60;;
8861;SDS011;4799;50.996;4.754;2022-10-22T09:32:04;5.03;;;2.33;;
8861;SDS011;4799;50.996;4.754;2022-10-22T09:34:30;7.20;;;2.40;;
8861;SDS011;4799;50.996;4.754;2022-10-22T09:36:58;8.00;;;2.17;;
8861;SDS011;4799;50.996;4.754;2022-10-22T09:39:27;8.73;;;2.40;;
8861;SDS011;4799;50.996;4.754;2022-10-22T09:41:56;7.20;;;2.40;;
8861;SDS011;4799;50.996;4.754;2022-10-22T09:44:22;7.50;;;2.30;;
8861;SDS011;4799;50.996;4.754;2022-10-22T09:46:48;5.63;;;1.80;;
8861;SDS011;4799;50.996;4.754;2022-10-22T09:49:15;9.23;;;2.37;;
8861;SDS011;4799;50.996;4.754;2022-10-22T09:51:50;6.93;;;1.97;;
8861;SDS011;4799;50.996;4.754;2022-10-22T09:54:20;8.97;;;2.30;;
8861;SDS011;4799;50.996;4.754;2022-10-22T09:56:52;6.13;;;1.93;;
8861;SDS011;4799;50.996;4.754;2022-10-22T09:59:32;7.57;;;2.03;;
8861;SDS011;4799;50.996;4.754;2022-10-22T10:02:21;7.93;;;2.33;;
8861;SDS011;4799;50.996;4.754;2022-10-22T10:04:51;6.33;;;1.87;;
8861;SDS011;4799;50.996;4.754;2022-10-22T10:07:20;5.13;;;1.90;;
8861;SDS011;4799;50.996;4.754;2022-10-22T10:09:46;5.63;;;2.07;;
8861;SDS011;4799;50.996;4.754;2022-10-22T10:25:48;9.53;;;2.50;;
8861;SDS011;4799;50.996;4.754;2022-10-22T10:28:52;7.73;;;2.10;;
8861;SDS011;4799;50.996;4.754;2022-10-22T10:34:41;8.10;;;2.80;;
8861;SDS011;4799;50.996;4.754;2022-10-22T10:42:06;5.90;;;1.90;;
8861;SDS011;4799;50.996;4.754;2022-10-22T10:50:42;4.37;;;1.80;;
8861;SDS011;4799;50.996;4.754;2022-10-22T10:53:46;4.80;;;2.00;;
8861;SDS011;4799;50.996;4.754;2022-10-22T11:07:24;4.53;;;1.97;;
8861;SDS011;4799;50.996;4.754;2022-10-22T11:10:00;6.00;;;1.90;;
8861;SDS011;4799;50.996;4.754;2022-10-22T11:12:33;5.67;;;2.40;;
8861;SDS011;4799;50.996;4.754;2022-10-22T11:15:13;7.33;;;1.93;;
8861;SDS011;4799;50.996;4.754;2022-10-22T11:17:54;6.30;;;2.10;;
8861;SDS011;4799;50.996;4.754;2022-10-22T11:21:02;6.80;;;2.00;;
8861;SDS011;4799;50.996;4.754;2022-10-22T11:23:27;5.57;;;2.00;;
8861;SDS011;4799;50.996;4.754;2022-10-22T11:26:00;4.20;;;1.70;;
8861;SDS011;4799;50.996;4.754;2022-10-22T11:28:32;5.27;;;1.80;;
8861;SDS011;4799;50.996;4.754;2022-10-22T11:31:06;6.97;;;2.00;;
8861;SDS011;4799;50.996;4.754;2022-10-22T11:33:51;5.80;;;2.10;;
8861;SDS011;4799;50.996;4.754;2022-10-22T11:36:24;6.37;;;2.27;;
8861;SDS011;4799;50.996;4.754;2022-10-22T11:38:52;6.43;;;2.33;;
8861;SDS011;4799;50.996;4.754;2022-10-22T11:41:21;5.43;;;1.60;;
8861;SDS011;4799;50.996;4.754;2022-10-22T11:48:44;4.90;;;1.60;;
8861;SDS011;4799;50.996;4.754;2022-10-22T11:51:34;6.33;;;1.73;;
8861;SDS011;4799;50.996;4.754;2022-10-22T11:54:07;3.70;;;1.90;;
8861;SDS011;4799;50.996;4.754;2022-10-22T12:04:51;2.93;;;1.53;;
8861;SDS011;4799;50.996;4.754;2022-10-22T12:07:47;6.20;;;1.77;;
8861;SDS011;4799;50.996;4.754;2022-10-22T12:10:24;2.73;;;1.70;;
8861;SDS011;4799;50.996;4.754;2022-10-22T12:12:55;4.53;;;1.70;;
8861;SDS011;4799;50.996;4.754;2022-10-22T12:15:27;5.37;;;2.20;;
8861;SDS011;4799;50.996;4.754;2022-10-22T12:17:59;5.20;;;2.00;;
8861;SDS011;4799;50.996;4.754;2022-10-22T12:20:29;4.77;;;2.00;;
8861;SDS011;4799;50.996;4.754;2022-10-22T12:22:56;5.83;;;1.97;;
8861;SDS011;4799;50.996;4.754;2022-10-22T12:25:28;4.90;;;1.97;;
8861;SDS011;4799;50.996;4.754;2022-10-22T12:27:58;5.03;;;1.80;;
8861;SDS011;4799;50.996;4.754;2022-10-22T12:30:26;6.40;;;1.77;;
8861;SDS011;4799;50.996;4.754;2022-10-22T12:32:55;6.50;;;2.17;;
8861;SDS011;4799;50.996;4.754;2022-10-22T12:35:26;4.53;;;1.43;;
8861;SDS011;4799;50.996;4.754;2022-10-22T12:37:54;6.30;;;1.97;;
8861;SDS011;4799;50.996;4.754;2022-10-22T12:40:22;5.63;;;1.80;;
8861;SDS011;4799;50.996;4.754;2022-10-22T12:42:51;5.17;;;1.80;;
8861;SDS011;4799;50.996;4.754;2022-10-22T12:45:19;4.47;;;1.70;;
8861;SDS011;4799;50.996;4.754;2022-10-22T12:47:49;3.80;;;1.60;;
8861;SDS011;4799;50.996;4.754;2022-10-22T12:50:20;4.47;;;1.70;;
8861;SDS011;4799;50.996;4.754;2022-10-22T12:52:53;4.70;;;1.90;;
8861;SDS011;4799;50.996;4.754;2022-10-22T12:55:21;4.23;;;1.73;;
8861;SDS011;4799;50.996;4.754;2022-10-22T12:57:50;5.27;;;1.73;;
8861;SDS011;4799;50.996;4.754;2022-10-22T13:00:20;4.87;;;1.70;;
8861;SDS011;4799;50.996;4.754;2022-10-22T13:02:51;4.53;;;1.83;;
8861;SDS011;4799;50.996;4.754;2022-10-22T13:07:47;3.83;;;1.70;;
8861;SDS011;4799;50.996;4.754;2022-10-22T13:10:25;4.00;;;1.70;;
8861;SDS011;4799;50.996;4.754;2022-10-22T13:12:56;4.00;;;1.90;;
8861;SDS011;4799;50.996;4.754;2022-10-22T13:17:59;5.17;;;1.80;;
8861;SDS011;4799;50.996;4.754;2022-10-22T13:20:29;4.33;;;1.80;;
8861;SDS011;4799;50.996;4.754;2022-10-22T13:22:55;4.87;;;2.00;;
8861;SDS011;4799;50.996;4.754;2022-10-22T13:27:58;4.00;;;1.77;;
8861;SDS011;4799;50.996;4.754;2022-10-22T13:30:28;5.00;;;1.80;;
8861;SDS011;4799;50.996;4.754;2022-10-22T13:33:01;5.03;;;1.70;;
8861;SDS011;4799;50.996;4.754;2022-10-22T13:35:29;6.27;;;1.90;;
8861;SDS011;4799;50.996;4.754;2022-10-22T13:37:58;4.87;;;1.60;;
8861;SDS011;4799;50.996;4.754;2022-10-22T13:40:24;4.83;;;2.00;;
8861;SDS011;4799;50.996;4.754;2022-10-22T13:42:50;5.27;;;1.90;;
8861;SDS011;4799;50.996;4.754;2022-10-22T13:45:16;3.90;;;1.77;;
8861;SDS011;4799;50.996;4.754;2022-10-22T13:47:43;4.37;;;1.73;;
8861;SDS011;4799;50.996;4.754;2022-10-22T13:50:15;4.23;;;1.63;;
8861;SDS011;4799;50.996;4.754;2022-10-22T13:52:44;4.10;;;1.90;;
8861;SDS011;4799;50.996;4.754;2022-10-22T13:55:19;2.57;;;1.50;;
8861;SDS011;4799;50.996;4.754;2022-10-22T13:57:57;4.27;;;1.73;;
8861;SDS011;4799;50.996;4.754;2022-10-22T14:00:27;5.47;;;1.80;;
8861;SDS011;4799;50.996;4.754;2022-10-22T14:02:54;3.83;;;1.50;;
8861;SDS011;4799;50.996;4.754;2022-10-22T14:05:22;4.30;;;1.57;;
8861;SDS011;4799;50.996;4.754;2022-10-22T14:07:48;4.73;;;1.57;;
8861;SDS011;4799;50.996;4.754;2022-10-22T14:10:16;3.10;;;1.30;;
8861;SDS011;4799;50.996;4.754;2022-10-22T14:12:47;6.60;;;2.00;;
8861;SDS011;4799;50.996;4.754;2022-10-22T14:15:15;3.73;;;1.67;;
8861;SDS011;4799;50.996;4.754;2022-10-22T14:17:44;3.90;;;1.60;;
8861;SDS011;4799;50.996;4.754;2022-10-22T14:20:14;3.73;;;1.60;;
8861;SDS011;4799;50.996;4.754;2022-10-22T14:22:43;4.13;;;1.40;;
8861;SDS011;4799;50.996;4.754;2022-10-22T14:25:18;4.13;;;1.90;;
8861;SDS011;4799;50.996;4.754;2022-10-22T14:27:46;4.97;;;1.80;;
8861;SDS011;4799;50.996;4.754;2022-10-22T14:30:13;4.97;;;1.90;;
8861;SDS011;4799;50.996;4.754;2022-10-22T14:32:47;4.70;;;1.70;;
8861;SDS011;4799;50.996;4.754;2022-10-22T14:35:14;4.13;;;1.60;;
8861;SDS011;4799;50.996;4.754;2022-10-22T14:37:45;5.47;;;1.67;;
8861;SDS011;4799;50.996;4.754;2022-10-22T14:40:12;4.33;;;1.73;;
8861;SDS011;4799;50.996;4.754;2022-10-22T14:42:41;6.07;;;1.60;;
8861;SDS011;4799;50.996;4.754;2022-10-22T14:45:11;3.53;;;1.47;;
8861;SDS011;4799;50.996;4.754;2022-10-22T14:47:41;6.27;;;1.60;;
8861;SDS011;4799;50.996;4.754;2022-10-22T14:50:07;4.63;;;1.60;;
8861;SDS011;4799;50.996;4.754;2022-10-22T14:52:34;4.67;;;1.80;;
8861;SDS011;4799;50.996;4.754;2022-10-22T14:55:00;4.00;;;1.50;;
8861;SDS011;4799;50.996;4.754;2022-10-22T14:57:26;4.47;;;1.70;;
8861;SDS011;4799;50.996;4.754;2022-10-22T14:59:51;3.37;;;1.47;;
8861;SDS011;4799;50.996;4.754;2022-10-22T15:02:20;4.27;;;1.80;;
8861;SDS011;4799;50.996;4.754;2022-10-22T15:04:46;5.20;;;1.87;;
8861;SDS011;4799;50.996;4.754;2022-10-22T15:07:12;4.87;;;2.10;;
8861;SDS011;4799;50.996;4.754;2022-10-22T15:09:39;4.53;;;1.80;;
8861;SDS011;4799;50.996;4.754;2022-10-22T15:12:04;3.27;;;1.50;;
8861;SDS011;4799;50.996;4.754;2022-10-22T15:14:30;5.23;;;1.80;;
8861;SDS011;4799;50.996;4.754;2022-10-22T15:16:56;6.50;;;2.07;;
8861;SDS011;4799;50.996;4.754;2022-10-22T15:19:23;4.50;;;1.90;;
8861;SDS011;4799;50.996;4.754;2022-10-22T15:21:49;4.63;;;2.00;;
8861;SDS011;4799;50.996;4.754;2022-10-22T15:24:14;6.67;;;2.10;;
8861;SDS011;4799;50.996;4.754;2022-10-22T15:26:40;5.47;;;2.20;;
8861;SDS011;4799;50.996;4.754;2022-10-22T15:29:06;4.97;;;1.87;;
8861;SDS011;4799;50.996;4.754;2022-10-22T15:34:28;6.33;;;2.30;;
8861;SDS011;4799;50.996;4.754;2022-10-22T15:36:57;7.10;;;2.43;;
8861;SDS011;4799;50.996;4.754;2022-10-22T15:39:24;5.27;;;1.87;;
8861;SDS011;4799;50.996;4.754;2022-10-22T15:41:51;7.47;;;3.40;;
8861;SDS011;4799;50.996;4.754;2022-10-22T15:44:19;7.33;;;4.23;;
8861;SDS011;4799;50.996;4.754;2022-10-22T15:46:46;9.67;;;4.10;;
8861;SDS011;4799;50.996;4.754;2022-10-22T15:49:13;8.93;;;4.17;;
8861;SDS011;4799;50.996;4.754;2022-10-22T15:51:39;10.30;;;4.57;;
8861;SDS011;4799;50.996;4.754;2022-10-22T15:54:04;8.53;;;4.13;;
8861;SDS011;4799;50.996;4.754;2022-10-22T15:56:30;9.47;;;4.30;;
8861;SDS011;4799;50.996;4.754;2022-10-22T15:59:00;7.07;;;3.47;;
8861;SDS011;4799;50.996;4.754;2022-10-22T16:01:28;8.40;;;3.50;;
8861;SDS011;4799;50.996;4.754;2022-10-22T16:03:54;6.77;;;2.80;;
8861;SDS011;4799;50.996;4.754;2022-10-22T16:06:30;5.30;;;2.53;;
8861;SDS011;4799;50.996;4.754;2022-10-22T16:09:02;6.10;;;2.67;;
8861;SDS011;4799;50.996;4.754;2022-10-22T16:11:30;8.93;;;3.40;;
8861;SDS011;4799;50.996;4.754;2022-10-22T16:13:56;6.90;;;2.60;;
8861;SDS011;4799;50.996;4.754;2022-10-22T16:16:24;9.53;;;3.70;;
8861;SDS011;4799;50.996;4.754;2022-10-22T16:18:51;6.93;;;2.50;;
8861;SDS011;4799;50.996;4.754;2022-10-22T16:21:17;11.67;;;4.20;;
8861;SDS011;4799;50.996;4.754;2022-10-22T16:23:44;7.70;;;3.50;;
8861;SDS011;4799;50.996;4.754;2022-10-22T16:26:10;9.00;;;3.57;;
8861;SDS011;4799;50.996;4.754;2022-10-22T16:28:38;8.00;;;3.17;;
8861;SDS011;4799;50.996;4.754;2022-10-22T16:31:04;6.30;;;2.90;;
8861;SDS011;4799;50.996;4.754;2022-10-22T16:33:33;7.73;;;2.60;;
8861;SDS011;4799;50.996;4.754;2022-10-22T16:36:00;7.20;;;3.20;;
8861;SDS011;4799;50.996;4.754;2022-10-22T16:38:26;6.60;;;3.00;;
8861;SDS011;4799;50.996;4.754;2022-10-22T16:40:52;6.97;;;2.90;;
8861;SDS011;4799;50.996;4.754;2022-10-22T16:43:18;6.93;;;2.70;;
8861;SDS011;4799;50.996;4.754;2022-10-22T16:45:50;8.03;;;3.00;;
8861;SDS011;4799;50.996;4.754;2022-10-22T16:48:16;8.17;;;4.07;;
8861;SDS011;4799;50.996;4.754;2022-10-22T16:50:42;6.30;;;2.93;;
8861;SDS011;4799;50.996;4.754;2022-10-22T16:53:08;6.17;;;3.53;;
8861;SDS011;4799;50.996;4.754;2022-10-22T16:55:35;12.20;;;4.20;;
8861;SDS011;4799;50.996;4.754;2022-10-22T16:58:01;5.97;;;3.20;;
8861;SDS011;4799;50.996;4.754;2022-10-22T17:00:27;6.40;;;2.07;;
8861;SDS011;4799;50.996;4.754;2022-10-22T17:02:53;6.63;;;2.20;;
8861;SDS011;4799;50.996;4.754;2022-10-22T17:05:19;3.57;;;1.80;;
8861;SDS011;4799;50.996;4.754;2022-10-22T17:07:46;5.50;;;2.57;;
8861;SDS011;4799;50.996;4.754;2022-10-22T17:10:11;5.90;;;3.33;;
8861;SDS011;4799;50.996;4.754;2022-10-22T17:12:37;6.23;;;3.00;;